Time;durP1;ratioP1;P1;durP2;ratioP2;P2;SDS_P1;SDS_P2;PMS_P1;PMS_P2;Temp;Humidity;BMP_temperature;BMP_pressure;BME280_temperature;BME280_humidity;BME280_pressure;Samples;Min_cycle;Max_cycle;Signal;HPM_P1;HPM_P2
2024/03/20 00:01:57;;;;;;;0.80;0.65;;;12.60;74.20;;;;;;5082694;28;20389;-64
2024/03/20 00:04:23;;;;;;;0.30;0.30;;;12.60;74.20;;;;;;5062140;28;20058;-64
2024/03/20 00:06:49;;;;;;;0.77;0.70;;;12.60;74.30;;;;;;5081378;28;20026;-64
2024/03/20 00:09:16;;;;;;;3.03;0.90;;;12.60;74.40;;;;;;5086469;28;20028;-64
2024/03/20 00:11:42;;;;;;;0.65;0.50;;;12.60;74.40;;;;;;5087759;28;20028;-65
2024/03/20 00:14:07;;;;;;;0.82;0.60;;;12.60;74.40;;;;;;5089018;28;20081;-64
2024/03/20 00:16:37;;;;;;;0.50;0.50;;;12.60;74.40;;;;;;5081045;28;20032;-65
2024/03/20 00:19:03;;;;;;;0.95;0.65;;;12.50;74.50;;;;;;5087564;28;20027;-64
2024/03/20 00:21:30;;;;;;;0.98;0.68;;;12.50;74.50;;;;;;5069107;28;20048;-64
2024/03/20 00:23:56;;;;;;;0.93;0.93;;;12.50;75.10;;;;;;5086058;28;20047;-64
2024/03/20 00:26:22;;;;;;;3.30;0.50;;;12.50;74.60;;;;;;5091608;28;20024;-64
2024/03/20 00:28:48;;;;;;;1.50;0.77;;;12.50;74.60;;;;;;5084515;28;20034;-64
2024/03/20 00:31:14;;;;;;;3.95;0.52;;;12.50;74.60;;;;;;5090263;28;20094;-65
2024/03/20 00:33:40;;;;;;;3.08;0.93;;;12.50;74.70;;;;;;5089103;28;20443;-64
2024/03/20 00:36:06;;;;;;;0.60;0.60;;;12.50;74.70;;;;;;5090085;28;20039;-64
2024/03/20 00:38:32;;;;;;;0.60;0.50;;;12.50;74.70;;;;;;5090166;28;20387;-64
2024/03/20 00:40:58;;;;;;;1.92;0.65;;;12.50;74.80;;;;;;5084517;28;20028;-64
2024/03/20 00:43:24;;;;;;;3.03;1.40;;;12.40;74.90;;;;;;5083194;28;20036;-64
2024/03/20 00:45:50;;;;;;;1.00;0.85;;;12.40;75.00;;;;;;5083963;28;20036;-64
2024/03/20 00:48:15;;;;;;;1.02;0.82;;;12.40;75.10;;;;;;5087563;28;20448;-64
2024/03/20 00:50:41;;;;;;;2.92;0.63;;;12.40;75.10;;;;;;5090229;28;20040;-64
2024/03/20 00:53:07;;;;;;;1.40;1.05;;;12.40;75.20;;;;;;5084727;28;20075;-64
2024/03/20 00:55:34;;;;;;;1.75;0.90;;;12.40;75.30;;;;;;5086175;28;20028;-64
2024/03/20 00:58:01;;;;;;;2.85;0.70;;;12.40;75.30;;;;;;5084750;28;20368;-64
2024/03/20 01:00:26;;;;;;;1.48;0.80;;;12.40;75.30;;;;;;5089680;28;20086;-64
2024/03/20 01:02:54;;;;;;;1.45;0.73;;;12.40;75.30;;;;;;5087198;28;20028;-65
2024/03/20 01:05:20;;;;;;;3.75;1.38;;;12.30;75.30;;;;;;5089507;28;20024;-65
2024/03/20 01:07:46;;;;;;;0.73;0.68;;;12.30;75.40;;;;;;5089093;28;20031;-65
2024/03/20 01:10:12;;;;;;;4.78;1.00;;;12.30;75.40;;;;;;5086561;28;20143;-65
2024/03/20 01:12:37;;;;;;;2.05;0.75;;;12.20;75.30;;;;;;5085068;28;20395;-65
2024/03/20 01:15:04;;;;;;;3.50;0.88;;;12.20;75.40;;;;;;5091173;28;20032;-65
2024/03/20 01:17:33;;;;;;;1.10;0.77;;;12.30;75.50;;;;;;5081883;28;20024;-65
2024/03/20 01:20:01;;;;;;;2.20;1.00;;;12.20;75.40;;;;;;5082202;28;20174;-65
2024/03/20 01:22:29;;;;;;;2.67;1.00;;;12.20;75.40;;;;;;5087006;28;20085;-65
2024/03/20 01:24:55;;;;;;;2.65;1.15;;;12.20;75.60;;;;;;5081883;28;20118;-65
2024/03/20 01:27:21;;;;;;;3.45;1.00;;;12.20;75.70;;;;;;5081800;28;20554;-64
2024/03/20 01:29:47;;;;;;;3.78;1.27;;;12.20;75.90;;;;;;5082784;28;20064;-65
2024/03/20 01:32:13;;;;;;;5.10;1.92;;;12.20;76.20;;;;;;5085322;28;20032;-65
2024/03/20 01:34:39;;;;;;;3.90;2.08;;;12.10;76.30;;;;;;5076018;28;20029;-64
2024/03/20 01:37:05;;;;;;;2.92;1.45;;;12.10;76.60;;;;;;5083440;28;20155;-64
2024/03/20 01:39:30;;;;;;;1.67;1.23;;;12.10;76.60;;;;;;5086697;28;20498;-64
2024/03/20 01:41:56;;;;;;;1.27;1.00;;;12.10;76.50;;;;;;5078883;28;20040;-64
2024/03/20 01:44:22;;;;;;;2.63;1.42;;;12.10;76.50;;;;;;5083110;28;20032;-64
2024/03/20 01:46:49;;;;;;;3.80;1.80;;;12.10;76.50;;;;;;5083506;28;20024;-64
2024/03/20 01:49:15;;;;;;;0.73;0.70;;;12.10;76.50;;;;;;5086625;28;20028;-64
2024/03/20 01:51:41;;;;;;;1.65;1.02;;;12.10;76.40;;;;;;5084443;28;20024;-64
2024/03/20 01:54:08;;;;;;;1.02;0.93;;;12.10;76.30;;;;;;5088432;28;20567;-64
2024/03/20 01:56:36;;;;;;;3.35;1.10;;;12.00;76.30;;;;;;5082340;28;20082;-64
2024/03/20 01:59:02;;;;;;;2.28;1.60;;;12.10;76.40;;;;;;5078273;28;20040;-64
2024/03/20 02:01:28;;;;;;;2.00;1.20;;;12.00;76.40;;;;;;5079373;28;20037;-64
2024/03/20 02:03:56;;;;;;;3.20;1.73;;;12.10;76.60;;;;;;5089921;28;20117;-64
2024/03/20 02:06:24;;;;;;;3.97;1.20;;;12.10;76.80;;;;;;5088698;28;20111;-64
2024/03/20 02:08:52;;;;;;;3.42;1.02;;;12.10;76.90;;;;;;5087456;28;20562;-64
2024/03/20 02:11:20;;;;;;;1.65;1.30;;;12.00;76.90;;;;;;5086554;28;20027;-64
2024/03/20 02:13:48;;;;;;;2.20;1.25;;;12.10;77.00;;;;;;5088883;28;20074;-65
2024/03/20 02:16:14;;;;;;;2.90;0.95;;;12.10;77.00;;;;;;5089098;28;20035;-64
2024/03/20 02:18:42;;;;;;;3.92;1.30;;;12.10;77.00;;;;;;5083452;28;20138;-64
2024/03/20 02:21:12;;;;;;;2.42;1.48;;;12.10;77.00;;;;;;5083961;28;20032;-65
2024/03/20 02:23:39;;;;;;;1.77;1.27;;;12.20;77.00;;;;;;5083300;28;20028;-65
2024/03/20 02:26:06;;;;;;;2.92;1.10;;;12.10;76.90;;;;;;5085166;28;20024;-64
2024/03/20 02:28:39;;;;;;;2.95;2.25;;;12.10;77.00;;;;;;5088210;28;20035;-64
2024/03/20 02:31:10;;;;;;;2.30;1.10;;;12.10;77.10;;;;;;5083892;28;20779;-64
2024/03/20 02:33:37;;;;;;;1.70;1.20;;;12.10;77.00;;;;;;5082221;28;20016;-64
2024/03/20 02:36:05;;;;;;;2.67;1.35;;;12.10;77.00;;;;;;5083768;28;20390;-64
2024/03/20 02:38:37;;;;;;;2.75;1.25;;;12.10;77.00;;;;;;5085233;28;20043;-64
2024/03/20 02:41:03;;;;;;;3.00;1.35;;;12.10;77.00;;;;;;5083179;28;20031;-64
2024/03/20 02:43:29;;;;;;;1.00;0.80;;;12.10;77.00;;;;;;5083984;28;20024;-64
2024/03/20 02:45:56;;;;;;;2.15;0.90;;;12.10;77.10;;;;;;5083314;28;20028;-64
2024/03/20 02:48:22;;;;;;;1.38;0.95;;;12.10;77.20;;;;;;5085283;28;20020;-64
2024/03/20 02:50:48;;;;;;;1.83;0.73;;;12.10;77.20;;;;;;5083902;28;20024;-64
2024/03/20 02:53:14;;;;;;;1.88;1.30;;;12.10;77.20;;;;;;5079933;28;20032;-64
2024/03/20 02:55:43;;;;;;;4.05;1.20;;;12.00;77.20;;;;;;5084806;28;20039;-64
2024/03/20 02:58:10;;;;;;;1.48;1.00;;;12.00;77.20;;;;;;5080323;28;20037;-63
2024/03/20 03:00:36;;;;;;;5.05;1.85;;;12.00;77.30;;;;;;5087101;28;20110;-63
2024/03/20 03:03:03;;;;;;;2.95;1.60;;;12.10;77.50;;;;;;5080864;28;20035;-63
2024/03/20 03:05:29;;;;;;;2.40;1.67;;;12.00;77.70;;;;;;5080334;28;20487;-63
2024/03/20 03:07:56;;;;;;;1.83;1.25;;;12.00;77.90;;;;;;5085996;28;20016;-64
2024/03/20 03:10:23;;;;;;;7.30;1.40;;;12.00;77.90;;;;;;5085516;28;20406;-64
2024/03/20 03:12:51;;;;;;;2.45;1.20;;;12.10;78.00;;;;;;5085912;28;20505;-64
2024/03/20 03:15:19;;;;;;;4.45;1.63;;;12.10;78.10;;;;;;5077584;28;20101;-64
2024/03/20 03:17:53;;;;;;;2.92;1.60;;;12.10;78.20;;;;;;5087216;28;20043;-64
2024/03/20 03:20:21;;;;;;;4.75;1.67;;;12.10;78.20;;;;;;5088418;28;20024;-64
2024/03/20 03:22:48;;;;;;;2.30;1.00;;;12.10;78.20;;;;;;5084892;28;20411;-63
2024/03/20 03:25:14;;;;;;;1.33;1.02;;;12.20;78.20;;;;;;5087426;28;20480;-63
2024/03/20 03:27:40;;;;;;;1.95;1.00;;;12.20;78.10;;;;;;5086870;28;20016;-64
2024/03/20 03:30:08;;;;;;;2.03;1.08;;;12.20;78.10;;;;;;5087780;28;20107;-64
2024/03/20 03:32:35;;;;;;;4.50;0.93;;;12.20;78.10;;;;;;5086058;28;20028;-63
2024/03/20 03:35:03;;;;;;;2.17;0.90;;;12.20;78.00;;;;;;5087675;28;20182;-63
2024/03/20 03:37:29;;;;;;;4.45;0.80;;;12.30;78.10;;;;;;5074067;28;20112;-64
2024/03/20 03:39:55;;;;;;;1.63;0.73;;;12.30;78.00;;;;;;5079103;28;20036;-64
2024/03/20 03:42:22;;;;;;;1.25;1.10;;;12.30;78.00;;;;;;5074320;28;20024;-64
2024/03/20 03:44:49;;;;;;;0.75;0.73;;;12.30;78.00;;;;;;5083669;28;20037;-64
2024/03/20 03:47:15;;;;;;;1.38;0.80;;;12.30;78.10;;;;;;5088156;28;20043;-64
2024/03/20 03:49:41;;;;;;;0.70;0.70;;;12.30;78.10;;;;;;5067627;28;20036;-64
2024/03/20 03:52:07;;;;;;;1.08;0.70;;;12.30;78.20;;;;;;5086023;28;20071;-64
2024/03/20 03:54:33;;;;;;;4.18;0.80;;;12.30;78.20;;;;;;5079764;28;20035;-64
2024/03/20 03:57:03;;;;;;;1.38;1.08;;;12.20;78.10;;;;;;5085988;28;20364;-64
2024/03/20 03:59:29;;;;;;;1.77;0.88;;;12.20;78.10;;;;;;5078571;28;20048;-64
2024/03/20 04:01:55;;;;;;;2.13;1.00;;;12.20;78.20;;;;;;5081511;28;20063;-64
2024/03/20 04:04:21;;;;;;;4.43;1.00;;;12.10;78.20;;;;;;5063381;28;20060;-64
2024/03/20 04:06:48;;;;;;;3.15;1.30;;;12.10;78.30;;;;;;5085603;28;20028;-64
2024/03/20 04:09:14;;;;;;;0.70;0.68;;;12.10;78.40;;;;;;5087757;28;20032;-64
2024/03/20 04:11:40;;;;;;;0.60;0.50;;;12.00;78.40;;;;;;5082138;28;20036;-64
2024/03/20 04:14:10;;;;;;;1.00;0.80;;;12.00;78.50;;;;;;5082722;28;20044;-64
2024/03/20 04:16:36;;;;;;;1.98;0.95;;;12.00;78.50;;;;;;5082638;28;20043;-64
2024/03/20 04:19:03;;;;;;;0.90;0.75;;;11.90;78.50;;;;;;5087435;28;20394;-64
2024/03/20 04:21:29;;;;;;;1.23;0.65;;;11.90;78.50;;;;;;5087427;28;20312;-64
2024/03/20 04:23:55;;;;;;;1.38;0.50;;;11.90;78.60;;;;;;5082369;28;20378;-64
2024/03/20 04:26:21;;;;;;;3.25;1.35;;;11.80;78.60;;;;;;5085772;28;20021;-64
2024/03/20 04:28:47;;;;;;;2.08;0.50;;;11.80;78.60;;;;;;5086251;28;20032;-64
2024/03/20 04:31:14;;;;;;;1.15;0.90;;;11.80;78.60;;;;;;5086474;28;20085;-64
2024/03/20 04:33:41;;;;;;;3.28;0.93;;;11.70;78.60;;;;;;5084882;28;20024;-64
2024/03/20 04:36:08;;;;;;;2.20;1.00;;;11.70;78.70;;;;;;5085255;28;20394;-64
2024/03/20 04:38:36;;;;;;;2.08;0.50;;;11.60;78.70;;;;;;5084583;28;20032;-64
2024/03/20 04:41:04;;;;;;;1.17;0.63;;;11.60;78.70;;;;;;5077502;28;20528;-64
2024/03/20 04:43:30;;;;;;;1.65;0.70;;;11.60;78.70;;;;;;5081178;28;20031;-64
2024/03/20 04:45:57;;;;;;;3.30;1.25;;;11.60;78.70;;;;;;5081797;28;20052;-64
2024/03/20 04:48:23;;;;;;;0.52;0.45;;;11.50;78.80;;;;;;5086660;28;20417;-64
2024/03/20 04:50:49;;;;;;;1.13;0.60;;;11.50;78.80;;;;;;5083611;28;20040;-64
2024/03/20 04:53:15;;;;;;;3.08;0.50;;;11.50;78.80;;;;;;5085770;28;20031;-64
2024/03/20 04:55:41;;;;;;;0.68;0.68;;;11.50;78.80;;;;;;5084833;28;20042;-64
2024/03/20 04:58:07;;;;;;;0.47;0.38;;;11.50;78.80;;;;;;5082764;28;20027;-64
2024/03/20 05:00:33;;;;;;;1.20;0.50;;;11.40;78.70;;;;;;5085434;28;20404;-64
2024/03/20 05:02:59;;;;;;;0.50;0.43;;;11.40;78.80;;;;;;5088532;28;20066;-64
2024/03/20 05:05:25;;;;;;;1.27;0.65;;;11.40;78.80;;;;;;5081498;28;20032;-64
2024/03/20 05:07:51;;;;;;;0.50;0.50;;;11.30;78.70;;;;;;5079878;28;20028;-64
2024/03/20 05:10:17;;;;;;;6.00;0.75;;;11.30;78.80;;;;;;5079313;28;20089;-64
2024/03/20 05:12:43;;;;;;;3.30;0.85;;;11.30;78.80;;;;;;5080645;28;20021;-64
2024/03/20 05:15:10;;;;;;;1.55;0.30;;;11.30;78.80;;;;;;5081119;28;20123;-64
2024/03/20 05:17:36;;;;;;;1.63;0.70;;;11.20;78.70;;;;;;5078036;28;20071;-64
2024/03/20 05:20:05;;;;;;;1.13;0.75;;;11.20;78.80;;;;;;5086456;28;20067;-64
2024/03/20 05:22:31;;;;;;;2.35;1.42;;;11.20;78.80;;;;;;5083280;28;20063;-64
2024/03/20 05:24:57;;;;;;;2.10;0.80;;;11.10;78.80;;;;;;5083792;28;20032;-64
2024/03/20 05:27:23;;;;;;;0.90;0.30;;;11.10;78.90;;;;;;5087706;28;20388;-64
2024/03/20 05:29:49;;;;;;;3.13;0.50;;;11.10;79.10;;;;;;5083376;28;20024;-64
2024/03/20 05:32:15;;;;;;;0.93;0.70;;;11.10;79.10;;;;;;5082986;28;20471;-64
2024/03/20 05:34:41;;;;;;;1.98;0.93;;;11.00;79.10;;;;;;5074767;28;20036;-64
2024/03/20 05:37:07;;;;;;;5.68;0.57;;;11.00;79.00;;;;;;5082722;28;20302;-64
2024/03/20 05:39:33;;;;;;;0.60;0.40;;;11.00;79.00;;;;;;5081685;28;20059;-64
2024/03/20 05:41:59;;;;;;;1.00;0.40;;;11.00;79.00;;;;;;5083150;28;20040;-64
2024/03/20 05:44:26;;;;;;;0.43;0.43;;;11.00;79.00;;;;;;5084201;28;20036;-64
2024/03/20 05:46:52;;;;;;;0.55;0.40;;;11.00;78.90;;;;;;5085071;28;20061;-64
2024/03/20 05:49:18;;;;;;;0.75;0.52;;;11.00;78.90;;;;;;5079447;28;20452;-64
2024/03/20 05:51:46;;;;;;;0.50;0.50;;;10.90;78.80;;;;;;5087259;28;20391;-64
2024/03/20 05:54:12;;;;;;;0.40;0.30;;;10.90;78.90;;;;;;5085874;28;20028;-64
2024/03/20 05:56:38;;;;;;;0.68;0.60;;;10.90;78.90;;;;;;5085374;28;20387;-64
2024/03/20 05:59:04;;;;;;;0.82;0.73;;;10.90;79.00;;;;;;5082714;28;20055;-64
2024/03/20 06:01:30;;;;;;;0.77;0.45;;;11.00;79.10;;;;;;5083774;28;20060;-64
2024/03/20 06:03:55;;;;;;;1.77;0.63;;;11.00;79.10;;;;;;5082821;28;20479;-64
2024/03/20 06:06:21;;;;;;;1.85;0.50;;;11.10;79.10;;;;;;5072888;28;20021;-65
2024/03/20 06:08:47;;;;;;;3.50;0.57;;;11.10;79.10;;;;;;5084083;28;20485;-64
2024/03/20 06:11:13;;;;;;;0.93;0.57;;;11.10;79.10;;;;;;5086223;28;20031;-64
2024/03/20 06:13:38;;;;;;;1.38;0.55;;;11.10;79.30;;;;;;5075172;28;20451;-64
2024/03/20 06:16:04;;;;;;;1.83;0.60;;;11.20;79.50;;;;;;5082294;28;20032;-64
2024/03/20 06:18:30;;;;;;;0.90;0.60;;;11.20;79.40;;;;;;5085637;28;20483;-64
2024/03/20 06:20:56;;;;;;;0.55;0.40;;;11.20;79.40;;;;;;5083463;28;20097;-64
2024/03/20 06:23:22;;;;;;;1.02;0.55;;;11.30;79.40;;;;;;5076980;28;20032;-64
2024/03/20 06:25:47;;;;;;;1.02;0.70;;;11.30;79.40;;;;;;5078180;28;20039;-64
2024/03/20 06:28:13;;;;;;;0.43;0.43;;;11.40;79.40;;;;;;5085567;28;20558;-64
2024/03/20 06:30:39;;;;;;;1.52;0.60;;;11.40;79.40;;;;;;5080704;28;20052;-64
2024/03/20 06:33:05;;;;;;;0.60;0.45;;;11.40;79.30;;;;;;5080940;28;20032;-65
2024/03/20 06:35:32;;;;;;;1.60;0.57;;;11.50;79.40;;;;;;5083989;28;20850;-64
2024/03/20 06:38:03;;;;;;;1.17;0.60;;;11.50;79.30;;;;;;5084198;28;20043;-65
2024/03/20 06:40:32;;;;;;;0.60;0.50;;;11.60;79.30;;;;;;5085350;28;20745;-64
2024/03/20 06:43:02;;;;;;;0.98;0.50;;;11.60;79.30;;;;;;5085290;28;20036;-64
2024/03/20 06:45:33;;;;;;;2.25;1.25;;;11.70;79.20;;;;;;5087576;28;20117;-65
2024/03/20 06:47:59;;;;;;;0.90;0.70;;;11.70;79.20;;;;;;5082158;28;20054;-64
2024/03/20 06:50:27;;;;;;;1.92;0.98;;;11.80;79.80;;;;;;5080854;28;20028;-64
2024/03/20 06:52:54;;;;;;;0.68;0.50;;;11.80;79.10;;;;;;5077983;28;20027;-64
2024/03/20 06:55:20;;;;;;;3.03;0.77;;;11.90;79.20;;;;;;5086843;28;20493;-64
2024/03/20 06:57:46;;;;;;;1.20;0.60;;;11.90;79.10;;;;;;5087549;28;20051;-64
2024/03/20 07:00:17;;;;;;;0.60;0.50;;;12.00;79.10;;;;;;5085995;28;20028;-65
2024/03/20 07:02:43;;;;;;;1.35;0.77;;;12.10;79.70;;;;;;5082733;28;20124;-64
2024/03/20 07:05:09;;;;;;;2.10;1.25;;;12.10;79.10;;;;;;5076156;28;20111;-65
2024/03/20 07:07:35;;;;;;;1.17;0.70;;;12.20;79.00;;;;;;5079851;28;20107;-64
2024/03/20 07:10:00;;;;;;;1.00;0.63;;;12.30;79.60;;;;;;5085907;28;20113;-64
2024/03/20 07:12:26;;;;;;;1.35;0.70;;;12.30;79.00;;;;;;5080074;28;20036;-64
2024/03/20 07:14:52;;;;;;;0.80;0.70;;;12.40;79.00;;;;;;5086015;28;20540;-65
2024/03/20 07:17:17;;;;;;;1.35;1.20;;;12.40;79.10;;;;;;5078462;28;20831;-65
2024/03/20 07:19:43;;;;;;;0.73;0.45;;;12.50;79.10;;;;;;5080260;28;20794;-64
2024/03/20 07:22:11;;;;;;;1.58;0.70;;;12.50;79.10;;;;;;5075373;28;20131;-64
2024/03/20 07:24:37;;;;;;;3.70;0.88;;;12.60;79.70;;;;;;5076048;28;20148;-64
2024/03/20 07:27:02;;;;;;;3.75;1.38;;;12.70;79.10;;;;;;5078468;28;20095;-64
2024/03/20 07:29:29;;;;;;;1.42;0.80;;;12.70;79.10;;;;;;5077101;28;20036;-64
2024/03/20 07:31:55;;;;;;;1.88;0.80;;;12.80;79.10;;;;;;5076777;28;20020;-64
2024/03/20 07:34:20;;;;;;;1.92;1.13;;;12.90;79.00;;;;;;5080137;28;20054;-64
2024/03/20 07:36:46;;;;;;;3.95;2.17;;;13.00;79.00;;;;;;5082906;28;20024;-64
2024/03/20 07:39:12;;;;;;;1.25;0.93;;;13.10;78.80;;;;;;5086783;28;20027;-64
2024/03/20 07:41:37;;;;;;;2.20;1.10;;;13.20;78.70;;;;;;5078620;28;20037;-64
2024/03/20 07:44:03;;;;;;;2.50;1.15;;;13.30;78.60;;;;;;5081167;28;20032;-64
2024/03/20 07:46:29;;;;;;;2.35;1.38;;;13.40;78.40;;;;;;5086754;28;20140;-65
2024/03/20 07:48:54;;;;;;;3.60;1.38;;;13.50;78.10;;;;;;5082856;28;20036;-64
2024/03/20 07:51:20;;;;;;;3.30;1.38;;;13.60;78.00;;;;;;5082294;28;20039;-64
2024/03/20 07:53:46;;;;;;;3.63;1.73;;;13.70;77.70;;;;;;5083211;28;20395;-64
2024/03/20 07:56:13;;;;;;;3.40;2.00;;;13.80;78.20;;;;;;5084804;28;20115;-64
2024/03/20 07:58:42;;;;;;;2.25;1.17;;;13.90;77.40;;;;;;5071509;28;20658;-64
2024/03/20 08:01:11;;;;;;;1.70;1.25;;;14.00;77.40;;;;;;5068716;28;20060;-64
2024/03/20 08:03:41;;;;;;;3.20;1.75;;;14.00;77.30;;;;;;5069988;28;20398;-65
2024/03/20 08:06:07;;;;;;;2.70;1.63;;;14.10;77.20;;;;;;5066692;28;20449;-65
2024/03/20 08:08:33;;;;;;;4.63;2.47;;;14.20;77.10;;;;;;5078239;28;20549;-65
2024/03/20 08:10:58;;;;;;;5.95;2.63;;;14.30;77.00;;;;;;5069387;28;20129;-65
2024/03/20 08:13:24;;;;;;;5.18;2.00;;;14.30;76.90;;;;;;5086230;28;20046;-65
2024/03/20 08:15:50;;;;;;;3.25;1.92;;;14.40;76.80;;;;;;5078262;28;20039;-64
2024/03/20 08:18:16;;;;;;;4.15;1.58;;;14.50;76.70;;;;;;5073528;28;20383;-64
2024/03/20 08:20:42;;;;;;;5.18;1.90;;;14.50;76.70;;;;;;5084594;28;20112;-63
2024/03/20 08:23:08;;;;;;;3.03;1.88;;;14.60;76.60;;;;;;5078731;28;20036;-66
2024/03/20 08:25:35;;;;;;;5.57;2.92;;;14.60;76.50;;;;;;5079774;28;20037;-65
2024/03/20 08:28:01;;;;;;;3.80;2.10;;;14.70;76.50;;;;;;5073754;28;20024;-65
2024/03/20 08:30:27;;;;;;;4.07;2.10;;;14.70;76.40;;;;;;5084761;28;20036;-65
2024/03/20 08:32:53;;;;;;;4.20;2.47;;;14.80;76.40;;;;;;5070974;28;20048;-64
2024/03/20 08:35:19;;;;;;;6.68;3.33;;;14.90;76.30;;;;;;5063395;28;20029;-66
2024/03/20 08:37:45;;;;;;;3.92;2.03;;;14.90;76.20;;;;;;5074958;28;20036;-66
2024/03/20 08:40:12;;;;;;;3.58;2.53;;;15.00;76.10;;;;;;5076848;28;20526;-65
2024/03/20 08:42:37;;;;;;;3.05;1.85;;;15.10;76.00;;;;;;5081970;28;20771;-64
2024/03/20 08:45:04;;;;;;;6.38;2.42;;;15.30;75.80;;;;;;5089151;28;20148;-65
2024/03/20 08:47:30;;;;;;;2.85;2.35;;;15.40;75.50;;;;;;5067323;28;20071;-65
2024/03/20 08:49:56;;;;;;;2.90;2.05;;;15.60;75.40;;;;;;5082815;28;20028;-65
2024/03/20 08:52:22;;;;;;;5.13;2.97;;;15.60;75.10;;;;;;5088174;28;20464;-64
2024/03/20 08:54:50;;;;;;;10.75;2.80;;;15.70;75.00;;;;;;5086544;28;20407;-65
2024/03/20 08:57:19;;;;;;;7.28;3.25;;;15.80;74.90;;;;;;5082997;28;20039;-65
2024/03/20 08:59:46;;;;;;;5.88;2.70;;;15.80;74.80;;;;;;5086927;28;20570;-65
2024/03/20 09:02:12;;;;;;;5.38;2.08;;;15.90;74.80;;;;;;5089782;28;20286;-65
2024/03/20 09:04:40;;;;;;;5.45;3.08;;;16.00;74.70;;;;;;5086359;28;20028;-65
2024/03/20 09:07:06;;;;;;;3.63;2.63;;;16.10;74.60;;;;;;5083982;28;20013;-65
2024/03/20 09:09:34;;;;;;;3.95;2.35;;;16.20;74.50;;;;;;5083267;28;20032;-65
2024/03/20 09:12:04;;;;;;;4.97;2.67;;;16.30;74.90;;;;;;5079478;28;20052;-65
2024/03/20 09:14:32;;;;;;;4.85;2.60;;;16.40;74.10;;;;;;5076063;28;20028;-65
2024/03/20 09:16:58;;;;;;;4.65;2.83;;;16.60;74.00;;;;;;5073088;28;20056;-66
2024/03/20 09:19:24;;;;;;;3.40;2.55;;;16.70;73.70;;;;;;5078479;28;20458;-65
2024/03/20 09:21:50;;;;;;;4.25;2.45;;;16.80;73.50;;;;;;5078611;28;20079;-65
2024/03/20 09:24:17;;;;;;;6.90;2.38;;;16.90;73.30;;;;;;5089612;28;20072;-64
2024/03/20 09:26:44;;;;;;;5.90;2.38;;;16.90;73.10;;;;;;5087187;28;20419;-65
2024/03/20 09:29:10;;;;;;;8.13;2.85;;;17.00;72.90;;;;;;5085404;28;20094;-64
2024/03/20 09:31:37;;;;;;;4.18;3.03;;;17.10;72.70;;;;;;5080325;28;20115;-65
2024/03/20 09:34:03;;;;;;;3.92;2.28;;;17.20;72.40;;;;;;5086234;28;20355;-65
2024/03/20 09:36:29;;;;;;;4.25;2.85;;;17.30;72.20;;;;;;5080369;28;20042;-64
2024/03/20 09:38:55;;;;;;;3.75;2.80;;;17.30;72.00;;;;;;5081947;28;20036;-65
2024/03/20 09:41:22;;;;;;;4.85;3.47;;;17.30;71.80;;;;;;5078318;28;20032;-65
2024/03/20 09:43:52;;;;;;;4.07;2.72;;;17.30;71.60;;;;;;5077561;28;20039;-65
2024/03/20 09:46:19;;;;;;;6.28;2.97;;;17.40;71.40;;;;;;5085128;28;20027;-65
2024/03/20 09:48:48;;;;;;;4.43;2.05;;;17.40;71.30;;;;;;5085491;28;20020;-65
2024/03/20 09:51:13;;;;;;;4.45;2.55;;;17.60;71.30;;;;;;5082748;28;20024;-65
2024/03/20 09:53:42;;;;;;;4.10;2.50;;;17.70;71.10;;;;;;5085933;28;20379;-64
2024/03/20 09:56:11;;;;;;;4.82;2.88;;;17.90;70.90;;;;;;5081294;28;20052;-65
2024/03/20 09:58:38;;;;;;;6.03;2.97;;;18.10;70.50;;;;;;5088090;28;20127;-64
2024/03/20 10:01:11;;;;;;;3.65;2.60;;;18.20;70.10;;;;;;5088854;28;20024;-64
2024/03/20 10:03:38;;;;;;;5.28;2.97;;;18.30;69.80;;;;;;5084271;28;20040;-64
2024/03/20 10:06:04;;;;;;;4.18;2.78;;;18.30;69.60;;;;;;5073519;28;20562;-65
2024/03/20 10:08:30;;;;;;;2.88;2.47;;;18.40;69.70;;;;;;5071677;28;20040;-65
2024/03/20 10:10:56;;;;;;;5.80;3.45;;;18.40;69.70;;;;;;5086280;28;20028;-65
2024/03/20 10:13:23;;;;;;;5.88;3.05;;;18.40;69.20;;;;;;5078109;28;20482;-64
2024/03/20 10:16:04;;;;;;;5.32;2.95;;;18.40;69.00;;;;;;5078229;28;20031;-64
2024/03/20 10:18:29;;;;;;;4.68;2.60;;;18.40;69.10;;;;;;5073187;28;20526;-64
2024/03/20 10:20:55;;;;;;;4.10;2.47;;;18.50;69.10;;;;;;5076045;28;21199;-64
2024/03/20 10:23:21;;;;;;;6.07;2.75;;;18.70;69.00;;;;;;5079830;28;20065;-64
2024/03/20 10:25:49;;;;;;;5.22;2.78;;;18.80;68.70;;;;;;5072567;28;20085;-65
2024/03/20 10:28:19;;;;;;;5.95;3.00;;;18.90;68.60;;;;;;5078817;28;20062;-64
2024/03/20 10:30:46;;;;;;;4.55;2.60;;;18.90;68.50;;;;;;5076426;28;20020;-64
2024/03/20 10:33:19;;;;;;;5.93;3.72;;;19.10;68.50;;;;;;5080745;28;20467;-65
2024/03/20 10:35:50;;;;;;;4.72;2.67;;;19.20;68.40;;;;;;5079030;28;20024;-64
2024/03/20 10:38:18;;;;;;;8.23;3.60;;;19.30;68.10;;;;;;5078481;28;20509;-65
2024/03/20 10:40:51;;;;;;;4.47;2.50;;;19.40;67.80;;;;;;5080148;28;20135;-64
2024/03/20 10:43:26;;;;;;;4.18;3.20;;;19.40;67.50;;;;;;5077784;28;20134;-64
2024/03/20 10:45:53;;;;;;;6.63;3.72;;;19.50;67.50;;;;;;5078226;28;20027;-64
2024/03/20 10:48:21;;;;;;;4.53;3.38;;;19.60;67.40;;;;;;5074299;28;20437;-64
2024/03/20 10:50:48;;;;;;;5.03;2.92;;;19.60;67.10;;;;;;5081088;28;20032;-65
2024/03/20 10:53:15;;;;;;;6.97;3.35;;;19.60;66.60;;;;;;5083936;28;20501;-64
2024/03/20 10:55:43;;;;;;;9.60;2.90;;;19.50;66.00;;;;;;5079895;28;20028;-64
2024/03/20 10:58:15;;;;;;;4.53;2.50;;;19.50;66.30;;;;;;5076060;28;20042;-64
2024/03/20 11:01:02;;;;;;;3.70;2.38;;;19.60;66.10;;;;;;5079625;28;21378;-65
2024/03/20 11:03:48;;;;;;;4.40;2.25;;;19.60;65.30;;;;;;5081009;28;20089;-64
2024/03/20 11:06:30;;;;;;;4.15;2.63;;;19.70;65.10;;;;;;5086641;28;20410;-65
2024/03/20 11:09:00;;;;;;;3.65;2.72;;;19.80;64.80;;;;;;5079286;28;20036;-64
2024/03/20 11:11:27;;;;;;;6.13;2.08;;;19.80;64.90;;;;;;5079565;28;20035;-65
2024/03/20 11:13:53;;;;;;;4.45;3.00;;;19.90;64.40;;;;;;5083699;28;20031;-64
2024/03/20 11:16:22;;;;;;;5.55;3.35;;;20.00;63.80;;;;;;5081274;28;20033;-65
2024/03/20 11:18:58;;;;;;;7.30;2.53;;;20.10;63.30;;;;;;5076497;28;20031;-65
2024/03/20 11:21:27;;;;;;;3.95;2.47;;;20.20;63.10;;;;;;5083430;28;20104;-64
2024/03/20 11:23:53;;;;;;;3.50;2.35;;;20.30;62.90;;;;;;5080733;28;20407;-65
2024/03/20 11:26:20;;;;;;;5.47;2.83;;;20.50;62.90;;;;;;5076321;28;20028;-64
2024/03/20 11:28:47;;;;;;;3.92;2.90;;;20.60;62.60;;;;;;5080710;28;20399;-65
2024/03/20 11:31:16;;;;;;;4.35;2.42;;;20.70;62.60;;;;;;5083856;28;20543;-65
2024/03/20 11:33:43;;;;;;;4.10;2.33;;;21.00;62.90;;;;;;5078148;28;20109;-65
2024/03/20 11:36:19;;;;;;;5.85;3.42;;;21.10;62.50;;;;;;5081497;28;20047;-65
2024/03/20 11:38:46;;;;;;;4.00;2.63;;;21.20;62.00;;;;;;5080044;28;20036;-65
2024/03/20 11:41:12;;;;;;;3.72;2.85;;;21.20;61.80;;;;;;5080866;28;20173;-65
2024/03/20 11:43:42;;;;;;;3.53;1.98;;;21.20;61.40;;;;;;5080483;28;20115;-65
2024/03/20 11:46:16;;;;;;;3.38;2.50;;;21.10;61.50;;;;;;5084580;28;20822;-65
2024/03/20 11:48:48;;;;;;;7.90;2.85;;;21.10;61.30;;;;;;5082174;28;20032;-65
2024/03/20 11:51:19;;;;;;;3.58;2.03;;;21.10;61.50;;;;;;5074623;28;20032;-65
2024/03/20 11:53:47;;;;;;;4.03;2.10;;;21.10;61.00;;;;;;5081283;28;20017;-65
2024/03/20 11:56:13;;;;;;;3.53;2.60;;;21.10;60.90;;;;;;5079601;28;20387;-65
2024/03/20 11:58:38;;;;;;;4.18;2.33;;;21.00;60.50;;;;;;5083507;28;20461;-65
2024/03/20 12:01:08;;;;;;;6.35;2.67;;;21.00;60.80;;;;;;5073720;28;20032;-65
2024/03/20 12:03:37;;;;;;;2.75;2.13;;;21.10;60.50;;;;;;5078399;28;20067;-65
2024/03/20 12:06:21;;;;;;;6.82;1.90;;;21.10;61.20;;;;;;5079495;28;20387;-65
2024/03/20 12:08:47;;;;;;;3.05;1.80;;;21.10;60.50;;;;;;5075906;28;20032;-63
2024/03/20 12:11:34;;;;;;;2.03;1.52;;;21.10;60.70;;;;;;5071496;28;20601;-63
2024/03/20 12:14:00;;;;;;;2.95;1.60;;;21.20;60.80;;;;;;5078928;28;20032;-65
2024/03/20 12:16:29;;;;;;;4.93;1.58;;;21.30;60.60;;;;;;5082334;28;20637;-63
2024/03/20 12:18:55;;;;;;;1.88;1.35;;;21.20;59.80;;;;;;5082635;28;20042;-64
2024/03/20 12:21:22;;;;;;;3.35;1.75;;;21.10;59.60;;;;;;5085797;28;20051;-64
2024/03/20 12:23:49;;;;;;;1.77;1.45;;;21.00;59.30;;;;;;5080804;28;20413;-63
2024/03/20 12:26:18;;;;;;;3.90;1.52;;;21.00;59.40;;;;;;5081783;28;20016;-63
2024/03/20 12:28:46;;;;;;;4.28;1.52;;;21.00;59.10;;;;;;5077880;28;20028;-66
2024/03/20 12:31:15;;;;;;;7.60;2.53;;;21.00;59.10;;;;;;5084114;28;20020;-67
2024/03/20 12:33:43;;;;;;;2.80;1.70;;;21.00;58.40;;;;;;5080827;28;20495;-66
2024/03/20 12:36:09;;;;;;;3.55;1.65;;;21.00;58.80;;;;;;5082415;28;20024;-64
2024/03/20 12:38:35;;;;;;;2.47;1.60;;;21.00;58.40;;;;;;5082672;28;20097;-67
2024/03/20 12:41:01;;;;;;;4.25;1.92;;;21.00;58.80;;;;;;5081140;28;20042;-66
2024/03/20 12:43:27;;;;;;;2.78;1.90;;;21.10;59.10;;;;;;5085395;28;20538;-65
2024/03/20 12:45:53;;;;;;;4.32;2.35;;;21.20;59.00;;;;;;5083422;28;20111;-65
2024/03/20 12:48:19;;;;;;;3.63;1.77;;;21.20;59.10;;;;;;5077121;28;20017;-64